Time;durP1;ratioP1;P1;durP2;ratioP2;P2;SDS_P1;SDS_P2;PMS_P1;PMS_P2;Temp;Humidity;BMP_temperature;BMP_pressure;BME280_temperature;BME280_humidity;BME280_pressure;Samples;Min_cycle;Max_cycle;Signal;HPM_P1;HPM_P2
2022/01/25 00:26:58;;;;;;;13.40;8.27;;;;;;;;;;5036995;28;20507;-75
2022/01/25 00:30:22;;;;;;;13.40;8.50;;;;;;;;;;5040326;28;20446;-76
2022/01/25 00:32:14;;;;;;;12.40;8.70;;;;;;;;;;4997096;28;20440;-76
2022/01/25 00:34:40;;;;;;;16.37;10.80;;;;;;;;;;5042135;28;20433;-76
2022/01/25 00:37:06;;;;;;;17.03;9.03;;;;;;;;;;5014379;28;20532;-76
2022/01/25 00:39:32;;;;;;;16.00;9.80;;;;;;;;;;5015377;28;20440;-76
2022/01/25 00:41:58;;;;;;;12.50;9.00;;;;;;;;;;5040515;28;20477;-76
2022/01/25 00:44:30;;;;;;;14.13;10.33;;;;;;;;;;5024944;28;20442;-76
2022/01/25 00:46:56;;;;;;;15.17;10.07;;;;;;;;;;5042691;28;20438;-75
2022/01/25 00:49:27;;;;;;;17.80;10.70;;;;;;;;;;5037092;28;20962;-76
2022/01/25 00:56:48;;;;;;;20.90;10.07;;;;;;;;;;5044462;28;20445;-76
2022/01/25 00:59:18;;;;;;;19.77;10.03;;;;;;;;;;5037301;28;20477;-76
2022/01/25 01:01:44;;;;;;;16.03;10.70;;;;;;;;;;5043492;28;20477;-76
2022/01/25 01:04:10;;;;;;;12.37;8.57;;;;;;;;;;5036374;28;21159;-76
2022/01/25 01:06:38;;;;;;;11.60;8.83;;;;;;;;;;5075954;28;20968;-76
2022/01/25 01:09:05;;;;;;;15.93;8.60;;;;;;;;;;5020922;28;20561;-76
2022/01/25 01:11:38;;;;;;;16.17;9.23;;;;;;;;;;5045426;28;20433;-76
2022/01/25 01:14:24;;;;;;;14.07;8.20;;;;;;;;;;5028812;28;20545;-76
2022/01/25 01:35:37;;;;;;;17.57;10.23;;;;;;;;;;5021609;28;20465;-75
2022/01/25 01:48:09;;;;;;;14.93;9.20;;;;;;;;;;5043373;28;20899;-76
2022/01/25 01:50:36;;;;;;;13.17;9.73;;;;;;;;;;5028359;28;20440;-75
2022/01/25 01:53:03;;;;;;;12.20;8.87;;;;;;;;;;5040686;28;20449;-77
2022/01/25 01:55:29;;;;;;;14.63;8.77;;;;;;;;;;5037753;28;20766;-76
2022/01/25 01:57:55;;;;;;;16.13;10.00;;;;;;;;;;5044215;28;20422;-76
2022/01/25 02:00:23;;;;;;;17.43;10.80;;;;;;;;;;4999437;28;20442;-76
2022/01/25 02:02:49;;;;;;;27.07;11.77;;;;;;;;;;5042894;28;20481;-76
2022/01/25 02:05:15;;;;;;;16.67;9.83;;;;;;;;;;5039133;28;21005;-76
2022/01/25 02:07:41;;;;;;;16.60;9.60;;;;;;;;;;5040528;28;21084;-76
2022/01/25 02:10:07;;;;;;;16.90;10.40;;;;;;;;;;5020682;28;20452;-76
2022/01/25 02:12:33;;;;;;;16.70;10.73;;;;;;;;;;5042640;28;20564;-75
2022/01/25 02:15:01;;;;;;;20.67;11.13;;;;;;;;;;5040048;28;20435;-76
2022/01/25 02:22:57;;;;;;;15.53;10.33;;;;;;;;;;5043996;28;20561;-76
2022/01/25 02:25:23;;;;;;;21.87;9.70;;;;;;;;;;5044478;28;20490;-77
2022/01/25 02:27:49;;;;;;;25.73;11.63;;;;;;;;;;5046153;28;20438;-77
2022/01/25 02:30:15;;;;;;;17.13;9.67;;;;;;;;;;5009917;28;20446;-75
2022/01/25 02:32:41;;;;;;;15.97;11.20;;;;;;;;;;5045910;28;20492;-76
2022/01/25 02:35:07;;;;;;;15.43;10.47;;;;;;;;;;5046654;28;20439;-75
2022/01/25 02:37:33;;;;;;;14.50;10.27;;;;;;;;;;5048152;28;20444;-77
2022/01/25 02:39:59;;;;;;;16.50;11.93;;;;;;;;;;5044736;28;20907;-76
2022/01/25 02:42:26;;;;;;;16.20;9.53;;;;;;;;;;5046480;28;21033;-76
2022/01/25 02:44:52;;;;;;;22.20;11.50;;;;;;;;;;5023980;28;22388;-76
2022/01/25 02:50:04;;;;;;;16.73;10.97;;;;;;;;;;5043353;28;20450;-76
2022/01/25 02:52:30;;;;;;;20.23;9.47;;;;;;;;;;5042851;28;20503;-76
2022/01/25 02:54:56;;;;;;;16.77;9.90;;;;;;;;;;5031259;28;20443;-76
2022/01/25 02:57:22;;;;;;;13.83;8.10;;;;;;;;;;5045084;28;20441;-76
2022/01/25 02:59:48;;;;;;;21.10;9.60;;;;;;;;;;5040923;28;20473;-77
2022/01/25 03:02:14;;;;;;;18.93;10.43;;;;;;;;;;5047013;28;20580;-76
2022/01/25 03:04:40;;;;;;;12.90;9.93;;;;;;;;;;5005117;28;20448;-76
2022/01/25 03:07:07;;;;;;;15.37;9.33;;;;;;;;;;5044124;28;22231;-76
2022/01/25 03:09:33;;;;;;;25.07;10.90;;;;;;;;;;5044528;28;20962;-76
2022/01/25 03:12:01;;;;;;;16.47;10.80;;;;;;;;;;5046755;28;20615;-76
2022/01/25 03:14:31;;;;;;;14.70;9.40;;;;;;;;;;5030417;28;20512;-77
2022/01/25 03:22:01;;;;;;;16.20;10.30;;;;;;;;;;5050773;28;20478;-76
2022/01/25 03:24:27;;;;;;;22.20;11.40;;;;;;;;;;5054038;28;20448;-76
2022/01/25 03:26:53;;;;;;;22.20;11.47;;;;;;;;;;5046475;28;20462;-76
2022/01/25 03:29:19;;;;;;;14.97;9.40;;;;;;;;;;5031738;28;20663;-76
2022/01/25 03:31:45;;;;;;;22.97;11.67;;;;;;;;;;5048006;28;20445;-75
2022/01/25 03:34:11;;;;;;;15.90;10.47;;;;;;;;;;5005079;28;20446;-77
2022/01/25 03:36:37;;;;;;;16.87;11.27;;;;;;;;;;5046395;28;20441;-77
2022/01/25 03:39:04;;;;;;;18.27;11.73;;;;;;;;;;5043905;28;21086;-77
2022/01/25 03:41:31;;;;;;;15.40;10.20;;;;;;;;;;5043199;28;21197;-77
2022/01/25 03:43:57;;;;;;;13.67;9.70;;;;;;;;;;5019512;28;22838;-77
2022/01/25 03:46:39;;;;;;;20.27;13.20;;;;;;;;;;5043869;28;20883;-76
2022/01/25 03:51:50;;;;;;;20.73;9.97;;;;;;;;;;5042448;28;21144;-76
2022/01/25 03:54:16;;;;;;;16.00;9.30;;;;;;;;;;5020593;28;20461;-76
2022/01/25 03:56:42;;;;;;;17.93;11.47;;;;;;;;;;5039200;28;20452;-76
2022/01/25 03:59:08;;;;;;;17.80;11.30;;;;;;;;;;5037927;28;20971;-76
2022/01/25 04:01:35;;;;;;;17.07;12.77;;;;;;;;;;5045371;28;20485;-77
2022/01/25 04:04:02;;;;;;;18.47;10.17;;;;;;;;;;5023317;28;20427;-76
2022/01/25 04:06:33;;;;;;;22.67;11.77;;;;;;;;;;5041095;28;20453;-75
2022/01/25 04:09:00;;;;;;;21.50;13.50;;;;;;;;;;4999205;28;20453;-76
2022/01/25 04:11:26;;;;;;;21.77;12.27;;;;;;;;;;5040424;28;20442;-76
2022/01/25 04:13:53;;;;;;;18.50;12.83;;;;;;;;;;5036406;28;20442;-76
2022/01/25 04:16:25;;;;;;;18.10;11.07;;;;;;;;;;5037745;28;20450;-75
2022/01/25 04:26:40;;;;;;;16.27;11.03;;;;;;;;;;5043784;28;20425;-75
2022/01/25 04:29:06;;;;;;;17.30;10.90;;;;;;;;;;5039496;28;20432;-75
2022/01/25 04:31:32;;;;;;;22.03;13.07;;;;;;;;;;5043010;28;20430;-76
2022/01/25 04:53:08;;;;;;;18.07;12.37;;;;;;;;;;5045613;28;20449;-76
2022/01/25 04:55:42;;;;;;;15.57;10.73;;;;;;;;;;5039235;28;20458;-76
2022/01/25 04:58:16;;;;;;;16.57;11.30;;;;;;;;;;5041126;28;20458;-76
2022/01/25 05:00:42;;;;;;;13.87;9.97;;;;;;;;;;5023335;28;21010;-76
2022/01/25 05:03:12;;;;;;;19.00;13.43;;;;;;;;;;5039812;28;20474;-76
2022/01/25 05:08:35;;;;;;;22.93;11.93;;;;;;;;;;5041885;28;20473;-76
2022/01/25 05:11:09;;;;;;;20.63;12.37;;;;;;;;;;5039760;28;20445;-75
2022/01/25 05:16:51;;;;;;;14.43;10.20;;;;;;;;;;5019205;28;20549;-76
2022/01/25 05:24:28;;;;;;;17.07;11.10;;;;;;;;;;5043862;28;20533;-77
2022/01/25 05:26:54;;;;;;;20.67;10.33;;;;;;;;;;5039150;28;20914;-76
2022/01/25 05:29:20;;;;;;;18.30;12.70;;;;;;;;;;5043846;28;20445;-76
2022/01/25 05:31:46;;;;;;;17.70;12.80;;;;;;;;;;5016046;28;20495;-76
2022/01/25 05:34:12;;;;;;;17.93;10.53;;;;;;;;;;5038746;28;21494;-77
2022/01/25 05:36:38;;;;;;;14.73;10.43;;;;;;;;;;5021941;28;20959;-76
2022/01/25 05:39:10;;;;;;;19.40;11.90;;;;;;;;;;5041525;28;20475;-77
2022/01/25 05:41:36;;;;;;;24.10;12.27;;;;;;;;;;5037399;28;20470;-76
2022/01/25 05:44:22;;;;;;;19.47;11.67;;;;;;;;;;5036675;28;20441;-77
2022/01/25 05:47:04;;;;;;;20.90;11.47;;;;;;;;;;4998609;28;20527;-76
2022/01/25 05:49:30;;;;;;;21.77;10.33;;;;;;;;;;5038795;28;20443;-76
2022/01/25 05:51:56;;;;;;;15.90;10.03;;;;;;;;;;5019289;28;20438;-76
2022/01/25 05:54:22;;;;;;;23.67;11.10;;;;;;;;;;5039292;28;20435;-77
2022/01/25 05:56:48;;;;;;;18.83;13.37;;;;;;;;;;5034803;28;20501;-77
2022/01/25 05:59:14;;;;;;;19.63;12.33;;;;;;;;;;5039268;28;20445;-76
2022/01/25 06:01:40;;;;;;;20.23;11.77;;;;;;;;;;5015492;28;20485;-77
2022/01/25 06:04:07;;;;;;;16.27;11.10;;;;;;;;;;5043154;28;20427;-76
2022/01/25 06:06:33;;;;;;;17.80;11.60;;;;;;;;;;5038105;28;20494;-76
2022/01/25 06:08:59;;;;;;;19.70;12.07;;;;;;;;;;5039735;28;20437;-77
2022/01/25 06:11:25;;;;;;;20.80;12.60;;;;;;;;;;5036489;28;21093;-78
2022/01/25 06:13:52;;;;;;;19.10;11.03;;;;;;;;;;5039966;28;20440;-76
2022/01/25 06:16:18;;;;;;;16.60;11.57;;;;;;;;;;5005011;28;20449;-76
2022/01/25 06:18:45;;;;;;;17.73;12.30;;;;;;;;;;5035641;28;20435;-76
2022/01/25 06:21:11;;;;;;;17.20;10.80;;;;;;;;;;5026778;28;20469;-76
2022/01/25 06:23:38;;;;;;;20.83;13.40;;;;;;;;;;5041592;28;20434;-76
2022/01/25 06:26:04;;;;;;;21.57;12.00;;;;;;;;;;5026191;28;20994;-76
2022/01/25 06:28:30;;;;;;;17.13;12.70;;;;;;;;;;5043946;28;20540;-76
2022/01/25 06:30:56;;;;;;;21.67;12.63;;;;;;;;;;5041563;28;20464;-76
2022/01/25 06:33:22;;;;;;;21.70;13.17;;;;;;;;;;5044174;28;20922;-76
2022/01/25 06:35:49;;;;;;;24.47;13.50;;;;;;;;;;5018987;28;20452;-76
2022/01/25 06:38:15;;;;;;;21.77;11.70;;;;;;;;;;5044607;28;20432;-76
2022/01/25 06:40:41;;;;;;;20.10;12.37;;;;;;;;;;5027775;28;20536;-76
2022/01/25 06:43:07;;;;;;;17.17;12.43;;;;;;;;;;5046549;28;20482;-76
2022/01/25 06:45:38;;;;;;;17.37;11.30;;;;;;;;;;5037665;28;20946;-76
2022/01/25 06:48:04;;;;;;;21.80;13.60;;;;;;;;;;5041338;28;20434;-75
2022/01/25 06:50:30;;;;;;;18.97;11.93;;;;;;;;;;5004420;28;20457;-75
2022/01/25 06:52:57;;;;;;;26.70;11.77;;;;;;;;;;5036470;28;20422;-76
2022/01/25 06:55:23;;;;;;;17.20;12.27;;;;;;;;;;5035854;28;20529;-75
2022/01/25 06:57:49;;;;;;;17.77;11.70;;;;;;;;;;5043828;28;20427;-75
2022/01/25 07:00:16;;;;;;;20.97;12.00;;;;;;;;;;5021392;28;20477;-76
2022/01/25 07:02:42;;;;;;;22.27;12.40;;;;;;;;;;5042615;28;20514;-75
2022/01/25 07:05:08;;;;;;;21.73;13.60;;;;;;;;;;5017978;28;20449;-75
2022/01/25 07:07:35;;;;;;;18.40;11.50;;;;;;;;;;5041532;28;20430;-76
2022/01/25 07:10:01;;;;;;;17.57;12.10;;;;;;;;;;5033988;28;20436;-76
2022/01/25 07:12:26;;;;;;;23.73;12.77;;;;;;;;;;5044653;28;21203;-75
2022/01/25 07:14:52;;;;;;;20.57;12.90;;;;;;;;;;5038513;28;20460;-75
2022/01/25 07:17:18;;;;;;;18.73;10.87;;;;;;;;;;5043294;28;20422;-75
2022/01/25 07:19:44;;;;;;;19.70;11.97;;;;;;;;;;5035795;28;20441;-75
2022/01/25 07:22:10;;;;;;;25.20;11.87;;;;;;;;;;5038595;28;20600;-73
2022/01/25 07:24:36;;;;;;;14.60;12.10;;;;;;;;;;5004702;28;20471;-74
2022/01/25 07:27:02;;;;;;;20.40;11.90;;;;;;;;;;5039048;28;20444;-75
2022/01/25 07:29:28;;;;;;;18.83;14.37;;;;;;;;;;5031968;28;20430;-75
2022/01/25 07:31:55;;;;;;;27.80;13.40;;;;;;;;;;5035710;28;20501;-75
2022/01/25 07:34:21;;;;;;;25.07;12.23;;;;;;;;;;5016485;28;20425;-73
2022/01/25 07:36:47;;;;;;;18.10;11.60;;;;;;;;;;5036503;28;20451;-75
2022/01/25 07:39:14;;;;;;;22.90;13.53;;;;;;;;;;5023441;28;20426;-75
2022/01/25 07:41:40;;;;;;;23.53;13.87;;;;;;;;;;5035612;28;20474;-75
2022/01/25 07:44:08;;;;;;;22.50;12.57;;;;;;;;;;5035441;28;20529;-73
2022/01/25 07:46:34;;;;;;;17.70;10.97;;;;;;;;;;5039949;28;20490;-74
2022/01/25 07:49:00;;;;;;;22.93;11.50;;;;;;;;;;5042148;28;20433;-75
2022/01/25 07:51:26;;;;;;;14.40;12.20;;;;;;;;;;5013815;28;20844;-75
2022/01/25 07:53:52;;;;;;;19.93;12.57;;;;;;;;;;5030945;28;20447;-75
2022/01/25 07:56:19;;;;;;;19.83;12.37;;;;;;;;;;5044719;28;21327;-74
2022/01/25 07:58:45;;;;;;;19.33;11.83;;;;;;;;;;4998074;28;20447;-74
2022/01/25 08:01:11;;;;;;;18.03;13.20;;;;;;;;;;5041338;28;20450;-73
2022/01/25 08:03:37;;;;;;;34.83;14.73;;;;;;;;;;5019452;28;21302;-73
2022/01/25 08:06:03;;;;;;;21.10;12.43;;;;;;;;;;5041196;28;20418;-74
2022/01/25 08:08:29;;;;;;;22.53;13.87;;;;;;;;;;5017619;28;20724;-74
2022/01/25 08:10:55;;;;;;;23.37;12.13;;;;;;;;;;5041082;28;20437;-74
2022/01/25 08:13:21;;;;;;;20.53;10.67;;;;;;;;;;5036203;28;20426;-73
2022/01/25 08:15:48;;;;;;;19.90;10.10;;;;;;;;;;5040652;28;20442;-74
2022/01/25 08:18:14;;;;;;;17.70;12.47;;;;;;;;;;5038410;28;20430;-74
2022/01/25 08:20:40;;;;;;;20.20;12.57;;;;;;;;;;5043154;28;20976;-73
2022/01/25 08:23:06;;;;;;;17.67;11.83;;;;;;;;;;5035316;28;21176;-73
2022/01/25 08:25:32;;;;;;;23.73;12.50;;;;;;;;;;5041630;28;20469;-73
2022/01/25 08:28:06;;;;;;;24.03;13.97;;;;;;;;;;5026634;28;21075;-73
2022/01/25 08:30:32;;;;;;;21.40;12.50;;;;;;;;;;5032070;28;20430;-74
2022/01/25 08:32:58;;;;;;;20.93;12.33;;;;;;;;;;5038792;28;20442;-75
2022/01/25 08:35:24;;;;;;;19.30;12.30;;;;;;;;;;5040883;28;21418;-75
2022/01/25 08:37:50;;;;;;;23.93;13.50;;;;;;;;;;5040486;28;20482;-75
2022/01/25 08:40:16;;;;;;;20.67;12.00;;;;;;;;;;5032747;28;20437;-75
2022/01/25 08:42:42;;;;;;;23.60;12.50;;;;;;;;;;5044982;28;20485;-75
2022/01/25 08:45:08;;;;;;;22.67;12.93;;;;;;;;;;5040735;28;20546;-74
2022/01/25 08:47:34;;;;;;;20.57;13.47;;;;;;;;;;5044928;28;20433;-74
2022/01/25 08:50:00;;;;;;;17.90;12.47;;;;;;;;;;5042927;28;22493;-74
2022/01/25 08:52:27;;;;;;;20.93;13.70;;;;;;;;;;5045045;28;20442;-75
2022/01/25 08:54:53;;;;;;;19.00;11.73;;;;;;;;;;5039017;28;20540;-75
2022/01/25 08:57:19;;;;;;;21.43;13.87;;;;;;;;;;5043336;28;20442;-74
2022/01/25 08:59:45;;;;;;;25.53;13.90;;;;;;;;;;5040546;28;20441;-74
2022/01/25 09:02:14;;;;;;;17.10;13.13;;;;;;;;;;5020877;28;21302;-76
2022/01/25 09:04:40;;;;;;;17.93;12.33;;;;;;;;;;5033640;28;21575;-75
2022/01/25 09:07:06;;;;;;;19.70;13.03;;;;;;;;;;5040708;28;20713;-74
2022/01/25 09:09:33;;;;;;;23.37;15.90;;;;;;;;;;5043295;28;20485;-74
2022/01/25 09:11:59;;;;;;;21.70;13.20;;;;;;;;;;5039749;28;21407;-74
2022/01/25 09:14:25;;;;;;;21.30;14.53;;;;;;;;;;5029184;28;20434;-75
2022/01/25 09:16:51;;;;;;;26.70;15.27;;;;;;;;;;5078044;28;21215;-75
2022/01/25 09:19:17;;;;;;;25.30;14.37;;;;;;;;;;5042289;28;20499;-75
2022/01/25 09:21:43;;;;;;;23.67;15.53;;;;;;;;;;5046439;28;20473;-75
2022/01/25 09:24:09;;;;;;;25.07;15.70;;;;;;;;;;5041326;28;20966;-75
2022/01/25 09:26:35;;;;;;;25.93;18.33;;;;;;;;;;5046385;28;20442;-75
2022/01/25 09:29:01;;;;;;;25.00;15.63;;;;;;;;;;5042123;28;21153;-75
2022/01/25 09:31:27;;;;;;;27.73;16.57;;;;;;;;;;5047165;28;20439;-74
2022/01/25 09:33:53;;;;;;;24.47;15.77;;;;;;;;;;5005461;28;20510;-75
2022/01/25 09:36:19;;;;;;;20.23;13.20;;;;;;;;;;5043734;28;20442;-75
2022/01/25 09:38:45;;;;;;;22.57;15.60;;;;;;;;;;5041456;28;20445;-74
2022/01/25 09:41:11;;;;;;;23.40;15.40;;;;;;;;;;5045013;28;20858;-75
2022/01/25 09:43:37;;;;;;;23.30;15.23;;;;;;;;;;5044000;28;20446;-75
2022/01/25 09:46:03;;;;;;;26.40;15.47;;;;;;;;;;5045522;28;21083;-75
2022/01/25 09:48:29;;;;;;;20.30;13.57;;;;;;;;;;5023774;28;21065;-75
2022/01/25 09:50:56;;;;;;;23.83;14.83;;;;;;;;;;5046678;28;20446;-75
2022/01/25 09:53:22;;;;;;;23.13;15.63;;;;;;;;;;5038821;28;20462;-75
2022/01/25 09:55:48;;;;;;;24.10;15.23;;;;;;;;;;5047675;28;21198;-74
2022/01/25 09:58:14;;;;;;;33.17;14.63;;;;;;;;;;5042140;28;20444;-75
2022/01/25 10:00:41;;;;;;;23.40;14.00;;;;;;;;;;5047797;28;20445;-75
2022/01/25 10:05:43;;;;;;;27.40;16.10;;;;;;;;;;5043701;28;20560;-75
2022/01/25 10:08:22;;;;;;;24.77;16.47;;;;;;;;;;5008672;28;20539;-74
2022/01/25 10:10:49;;;;;;;23.60;16.20;;;;;;;;;;5044823;28;20800;-74
2022/01/25 10:13:21;;;;;;;23.27;15.40;;;;;;;;;;5036104;28;20696;-75
2022/01/25 10:15:47;;;;;;;28.80;17.53;;;;;;;;;;5044891;28;20529;-75
2022/01/25 10:18:13;;;;;;;22.10;14.40;;;;;;;;;;5039296;28;20502;-74
2022/01/25 10:20:41;;;;;;;21.73;15.83;;;;;;;;;;5044604;28;20438;-75
2022/01/25 10:23:11;;;;;;;20.73;14.77;;;;;;;;;;5023652;28;20480;-73
2022/01/25 10:25:38;;;;;;;27.27;14.63;;;;;;;;;;5044412;28;20433;-73
2022/01/25 10:28:11;;;;;;;28.53;16.87;;;;;;;;;;5038215;28;20447;-73
2022/01/25 10:30:38;;;;;;;23.13;14.57;;;;;;;;;;5042239;28;20434;-73
2022/01/25 10:33:15;;;;;;;17.70;12.60;;;;;;;;;;5024369;28;22564;-74
2022/01/25 10:35:41;;;;;;;24.03;15.27;;;;;;;;;;5047312;28;20962;-72
2022/01/25 10:38:17;;;;;;;23.47;14.57;;;;;;;;;;5009004;28;20450;-73
2022/01/25 10:40:43;;;;;;;24.97;15.37;;;;;;;;;;5048374;28;20499;-73
2022/01/25 10:43:13;;;;;;;24.77;15.97;;;;;;;;;;5044923;28;20811;-73
2022/01/25 10:45:39;;;;;;;24.80;14.60;;;;;;;;;;5047849;28;23404;-74
2022/01/25 10:48:05;;;;;;;22.73;16.13;;;;;;;;;;5043837;28;20444;-73
2022/01/25 10:50:34;;;;;;;27.90;16.33;;;;;;;;;;5044864;28;20899;-73
2022/01/25 10:53:07;;;;;;;23.10;15.37;;;;;;;;;;5023273;28;20526;-74
2022/01/25 10:55:40;;;;;;;27.67;16.40;;;;;;;;;;5031868;28;20433;-74
2022/01/25 10:58:07;;;;;;;22.23;15.57;;;;;;;;;;5040316;28;20643;-75
2022/01/25 11:00:33;;;;;;;23.13;15.40;;;;;;;;;;5047100;28;20488;-74
2022/01/25 11:02:59;;;;;;;28.13;17.90;;;;;;;;;;5040173;28;20497;-73
2022/01/25 11:05:26;;;;;;;23.33;16.93;;;;;;;;;;5042771;28;20438;-73
2022/01/25 11:07:53;;;;;;;27.67;16.43;;;;;;;;;;5041048;28;20450;-74
2022/01/25 11:10:20;;;;;;;25.37;15.00;;;;;;;;;;5031975;28;21061;-75
2022/01/25 11:13:03;;;;;;;25.50;18.60;;;;;;;;;;5050944;28;21059;-73
2022/01/25 11:15:30;;;;;;;20.53;16.30;;;;;;;;;;5050552;28;20517;-73
2022/01/25 11:17:56;;;;;;;24.20;16.30;;;;;;;;;;5048412;28;20441;-74
2022/01/25 11:20:21;;;;;;;23.43;15.17;;;;;;;;;;5048200;28;20458;-74
2022/01/25 11:22:47;;;;;;;23.67;16.80;;;;;;;;;;5044704;28;20844;-73
2022/01/25 11:25:15;;;;;;;21.33;15.47;;;;;;;;;;5033549;28;20430;-74
2022/01/25 11:27:40;;;;;;;24.73;16.33;;;;;;;;;;5045595;28;20449;-73
2022/01/25 11:30:09;;;;;;;28.10;15.43;;;;;;;;;;5041693;28;20441;-74
2022/01/25 11:32:37;;;;;;;27.50;16.60;;;;;;;;;;5047078;28;20446;-74
2022/01/25 11:35:06;;;;;;;24.93;15.40;;;;;;;;;;5042770;28;20434;-73
2022/01/25 11:37:40;;;;;;;22.90;15.87;;;;;;;;;;5043172;28;20433;-74
2022/01/25 11:40:20;;;;;;;20.83;16.23;;;;;;;;;;5013826;28;20445;-74
2022/01/25 11:42:49;;;;;;;22.50;17.07;;;;;;;;;;5044246;28;20608;-73
2022/01/25 11:45:15;;;;;;;23.80;16.50;;;;;;;;;;5043385;28;20466;-73
2022/01/25 11:47:42;;;;;;;24.07;16.10;;;;;;;;;;5046420;28;20511;-73
2022/01/25 11:50:10;;;;;;;29.70;17.23;;;;;;;;;;5024249;28;20451;-73
2022/01/25 11:52:36;;;;;;;28.00;17.60;;;;;;;;;;5043529;28;20534;-72
2022/01/25 11:55:21;;;;;;;35.00;18.77;;;;;;;;;;5042483;28;20426;-73
2022/01/25 11:57:47;;;;;;;23.63;16.77;;;;;;;;;;5043663;28;20438;-74
2022/01/25 12:00:13;;;;;;;25.30;16.93;;;;;;;;;;5033145;28;20683;-74
2022/01/25 12:02:40;;;;;;;26.17;18.50;;;;;;;;;;5045513;28;20514;-74
2022/01/25 12:05:07;;;;;;;25.67;18.60;;;;;;;;;;5039273;28;20791;-72
2022/01/25 12:07:39;;;;;;;29.60;19.23;;;;;;;;;;5051674;28;20433;-74
2022/01/25 12:10:16;;;;;;;28.90;19.63;;;;;;;;;;5038668;28;20476;-72
2022/01/25 12:13:02;;;;;;;36.60;19.87;;;;;;;;;;5033297;28;20445;-73
2022/01/25 12:15:28;;;;;;;29.23;20.03;;;;;;;;;;5030710;28;20425;-73
2022/01/25 12:17:54;;;;;;;29.60;17.93;;;;;;;;;;5042083;28;20991;-74
2022/01/25 12:20:24;;;;;;;32.13;19.27;;;;;;;;;;5040611;28;21110;-75
2022/01/25 12:23:04;;;;;;;30.83;19.43;;;;;;;;;;5040393;28;20486;-72
2022/01/25 12:25:35;;;;;;;29.23;18.97;;;;;;;;;;5042435;28;20426;-75
2022/01/25 12:28:07;;;;;;;27.07;17.80;;;;;;;;;;5032961;28;21092;-72
2022/01/25 12:30:34;;;;;;;31.57;19.77;;;;;;;;;;5037482;28;20491;-73
2022/01/25 12:33:02;;;;;;;26.30;18.33;;;;;;;;;;5040684;28;20444;-72
2022/01/25 12:35:34;;;;;;;28.67;18.13;;;;;;;;;;5040512;28;20442;-72
2022/01/25 12:38:10;;;;;;;34.70;21.73;;;;;;;;;;5023915;28;20707;-74
2022/01/25 12:40:41;;;;;;;28.83;19.57;;;;;;;;;;5044068;28;21107;-72
2022/01/25 12:43:19;;;;;;;26.97;18.50;;;;;;;;;;5040638;28;20485;-72
2022/01/25 12:45:46;;;;;;;27.10;19.03;;;;;;;;;;5045097;28;20528;-72
2022/01/25 12:48:17;;;;;;;35.07;17.87;;;;;;;;;;5005741;28;20504;-74
2022/01/25 12:50:44;;;;;;;28.63;19.50;;;;;;;;;;5044137;28;20441;-74
2022/01/25 12:53:11;;;;;;;30.30;18.47;;;;;;;;;;5022707;28;20435;-73
2022/01/25 12:55:39;;;;;;;30.77;19.30;;;;;;;;;;5048163;28;20442;-74
2022/01/25 12:58:05;;;;;;;29.20;18.20;;;;;;;;;;5049071;28;20442;-74
2022/01/25 13:00:32;;;;;;;29.93;18.37;;;;;;;;;;5046563;28;20450;-73
2022/01/25 13:03:17;;;;;;;29.93;19.03;;;;;;;;;;5023166;28;22594;-73
2022/01/25 13:05:44;;;;;;;29.37;17.37;;;;;;;;;;5046080;28;20430;-73
2022/01/25 13:08:20;;;;;;;29.10;17.60;;;;;;;;;;5039312;28;20450;-73
2022/01/25 13:10:48;;;;;;;36.20;18.50;;;;;;;;;;5047438;28;20437;-73
2022/01/25 13:13:22;;;;;;;29.87;19.67;;;;;;;;;;5041922;28;20549;-73
2022/01/25 13:18:14;;;;;;;25.03;17.97;;;;;;;;;;5008781;28;20554;-73
2022/01/25 13:20:42;;;;;;;27.10;16.90;;;;;;;;;;5045239;28;20545;-73
2022/01/25 13:23:08;;;;;;;36.60;17.67;;;;;;;;;;5035781;28;20862;-73
2022/01/25 13:25:55;;;;;;;32.80;18.43;;;;;;;;;;5043467;28;20480;-74
2022/01/25 13:31:00;;;;;;;30.17;17.90;;;;;;;;;;5043728;28;20432;-74
2022/01/25 13:33:28;;;;;;;25.67;16.10;;;;;;;;;;5040202;28;20465;-74
2022/01/25 13:35:56;;;;;;;27.90;18.30;;;;;;;;;;5043755;28;20430;-74
2022/01/25 13:38:23;;;;;;;30.30;18.43;;;;;;;;;;5025833;28;20500;-74
2022/01/25 13:41:03;;;;;;;29.03;15.93;;;;;;;;;;5042859;28;20431;-73
2022/01/25 13:45:43;;;;;;;33.10;18.30;;;;;;;;;;5038373;28;20473;-74
2022/01/25 13:46:19;;;;;;;32.43;18.27;;;;;;;;;;5045261;28;20449;-74
2022/01/25 13:48:45;;;;;;;26.70;18.77;;;;;;;;;;5039887;28;20489;-74
2022/01/25 13:51:12;;;;;;;31.00;19.73;;;;;;;;;;5044503;28;20429;-74
2022/01/25 13:53:38;;;;;;;25.73;18.30;;;;;;;;;;5003637;28;20491;-74
2022/01/25 13:56:12;;;;;;;31.80;19.83;;;;;;;;;;5043768;28;20731;-73
2022/01/25 13:58:40;;;;;;;28.57;18.40;;;;;;;;;;5035622;28;20569;-73
2022/01/25 14:01:07;;;;;;;30.40;18.10;;;;;;;;;;5041483;28;20777;-73
2022/01/25 14:03:37;;;;;;;30.90;18.80;;;;;;;;;;5041408;28;20489;-73
2022/01/25 14:06:19;;;;;;;25.20;16.97;;;;;;;;;;5045249;28;20442;-73
2022/01/25 14:08:45;;;;;;;32.50;18.90;;;;;;;;;;5040670;28;21081;-76
2022/01/25 14:11:25;;;;;;;28.33;19.00;;;;;;;;;;5045632;28;20454;-74
2022/01/25 14:25:04;;;;;;;32.47;17.97;;;;;;;;;;5009725;28;20558;-74
2022/01/25 14:27:35;;;;;;;40.03;21.13;;;;;;;;;;5039967;28;20526;-73
2022/01/25 14:30:01;;;;;;;36.77;21.07;;;;;;;;;;5021687;28;20627;-73
2022/01/25 14:32:45;;;;;;;33.73;20.50;;;;;;;;;;5036665;28;20583;-73
2022/01/25 14:35:11;;;;;;;36.40;23.43;;;;;;;;;;5036942;28;20499;-73
2022/01/25 14:37:41;;;;;;;42.80;25.00;;;;;;;;;;5035424;28;20939;-74
2022/01/25 14:40:08;;;;;;;40.43;20.60;;;;;;;;;;5037839;28;20438;-74
2022/01/25 14:42:34;;;;;;;31.50;19.27;;;;;;;;;;5033422;28;20469;-74
2022/01/25 14:45:01;;;;;;;41.67;20.00;;;;;;;;;;5038169;28;20438;-73
2022/01/25 14:47:35;;;;;;;37.90;20.97;;;;;;;;;;5020231;28;20508;-74
2022/01/25 14:50:01;;;;;;;43.80;21.30;;;;;;;;;;5039495;28;20792;-74
2022/01/25 14:52:27;;;;;;;42.10;20.77;;;;;;;;;;5034511;28;21017;-74
2022/01/25 14:54:52;;;;;;;29.03;19.27;;;;;;;;;;5040696;28;21148;-73
2022/01/25 14:57:25;;;;;;;39.97;20.37;;;;;;;;;;4998519;28;21901;-74
2022/01/25 14:59:51;;;;;;;39.87;20.50;;;;;;;;;;5039683;28;20818;-74
2022/01/25 15:02:17;;;;;;;31.23;19.33;;;;;;;;;;5021045;28;21314;-74
2022/01/25 15:04:46;;;;;;;39.27;21.40;;;;;;;;;;5041098;28;20433;-73
2022/01/25 15:07:20;;;;;;;33.27;18.70;;;;;;;;;;5037273;28;21838;-73
2022/01/25 15:10:00;;;;;;;34.50;18.90;;;;;;;;;;5041916;28;21465;-73
2022/01/25 15:12:30;;;;;;;39.80;23.33;;;;;;;;;;5036440;28;20487;-74
2022/01/25 15:15:08;;;;;;;43.03;22.83;;;;;;;;;;5041200;28;21116;-73
2022/01/25 15:17:35;;;;;;;39.07;21.17;;;;;;;;;;5037511;28;20472;-73
2022/01/25 15:20:01;;;;;;;34.13;19.03;;;;;;;;;;5019996;28;20428;-73
2022/01/25 15:22:28;;;;;;;37.20;21.80;;;;;;;;;;4999804;28;22174;-72
2022/01/25 15:24:57;;;;;;;39.03;19.20;;;;;;;;;;5037260;28;20998;-73
2022/01/25 15:27:27;;;;;;;40.60;22.10;;;;;;;;;;5034467;28;20438;-73
2022/01/25 15:29:54;;;;;;;47.30;22.90;;;;;;;;;;5037034;28;21493;-75
2022/01/25 15:32:20;;;;;;;41.20;21.97;;;;;;;;;;4995206;28;20900;-72
2022/01/25 15:34:46;;;;;;;34.37;19.20;;;;;;;;;;5042862;28;20961;-73
2022/01/25 15:37:13;;;;;;;52.80;21.23;;;;;;;;;;5018924;28;20485;-73
2022/01/25 15:39:39;;;;;;;41.20;20.60;;;;;;;;;;5038709;28;20500;-73
2022/01/25 15:42:05;;;;;;;41.63;20.80;;;;;;;;;;5036261;28;20465;-73
2022/01/25 15:44:39;;;;;;;39.53;21.27;;;;;;;;;;5040905;28;20448;-73
2022/01/25 15:47:07;;;;;;;37.47;20.57;;;;;;;;;;5038136;28;20522;-73
2022/01/25 15:49:33;;;;;;;50.13;22.80;;;;;;;;;;5037200;28;20477;-73
2022/01/25 15:51:59;;;;;;;47.00;22.00;;;;;;;;;;5038258;28;20512;-73
2022/01/25 15:54:25;;;;;;;47.10;22.93;;;;;;;;;;5021623;28;21047;-74
2022/01/25 15:56:52;;;;;;;51.23;23.63;;;;;;;;;;5039250;28;21319;-73
2022/01/25 15:59:19;;;;;;;43.83;22.07;;;;;;;;;;5037209;28;20506;-73
2022/01/25 16:01:50;;;;;;;47.23;20.47;;;;;;;;;;5036975;28;21422;-74
2022/01/25 16:04:16;;;;;;;35.33;20.37;;;;;;;;;;4997902;28;20450;-72
2022/01/25 16:06:42;;;;;;;43.73;21.27;;;;;;;;;;5048042;28;20446;-73
2022/01/25 16:09:08;;;;;;;40.57;21.17;;;;;;;;;;5025187;28;20437;-74
2022/01/25 16:11:34;;;;;;;54.47;22.87;;;;;;;;;;5036688;28;20442;-73
2022/01/25 16:14:00;;;;;;;51.47;22.00;;;;;;;;;;5033103;28;20489;-74
2022/01/25 16:16:26;;;;;;;45.57;21.30;;;;;;;;;;5042862;28;20509;-73
2022/01/25 16:18:52;;;;;;;48.60;22.07;;;;;;;;;;5041442;28;20987;-73
2022/01/25 16:21:18;;;;;;;50.17;21.60;;;;;;;;;;5024263;28;21523;-74
2022/01/25 16:23:44;;;;;;;48.07;23.27;;;;;;;;;;5052930;28;20895;-74
2022/01/25 16:26:13;;;;;;;50.27;21.27;;;;;;;;;;5047408;28;20442;-74
2022/01/25 16:28:42;;;;;;;55.23;24.23;;;;;;;;;;5025346;28;20448;-74
2022/01/25 16:34:08;;;;;;;53.27;23.00;;;;;;;;;;5005337;28;20446;-73
2022/01/25 16:36:40;;;;;;;57.27;22.30;;;;;;;;;;5037270;28;20483;-73
2022/01/25 16:39:07;;;;;;;44.27;20.13;;;;;;;;;;5010690;28;20473;-73